METAR Data
IDs: Format: Raw Decoded Include TAF

Data at: 2058 UTC 18 Apr 2021

KFLL 182053Z 17015KT 10SM SCT049 SCT060 31/23 A2987 RMK AO2 SLP114 T03060228 56014
KFLL 181953Z 15015KT 10SM FEW040 SCT049 SCT060 30/23 A2988 RMK AO2 SLP117 T03000228
KFLL 181853Z 15014G19KT 10SM SCT038 SCT046 BKN055 29/22 A2990 RMK AO2 SLP124 T02940222
KFLL 181753Z 13015KT 10SM FEW027 BKN043 BKN070 BKN250 29/22 A2991 RMK AO2 SLP127 T02940222 10300 20244 58019
KFLL 181653Z 14013KT 10SM BKN036 29/22 A2993 RMK AO2 SLP133 T02940222
KFLL 181553Z 14012G20KT 10SM BKN040 BKN250 28/22 A2995 RMK AO2 SLP143 T02830222
KFLL 181453Z 24006KT 10SM FEW070 BKN250 28/21 A2996 RMK AO2 SLP146 T02830206 50001
KFLL 181353Z 23005KT 10SM BKN250 27/20 A2997 RMK AO2 SLP149 T02720200
KFLL 181253Z 00000KT 10SM FEW037 SCT065 26/22 A2997 RMK AO2 SLP147 T02610217
KFLL 181153Z VRB04KT 10SM FEW042 BKN065 24/21 A2996 RMK AO2 SLP145 T02440211 10244 20233 53010
KFLL 181053Z 20003KT 10SM FEW040 FEW060 23/21 A2995 RMK AO2 SLP142 T02330211
KFLL 180953Z 00000KT 10SM FEW055 23/21 A2994 RMK AO2 SLP138 T02330211
KFLL 180853Z 25003KT 10SM SCT045 SCT055 23/21 A2993 RMK AO2 SLP135 T02330211 53004
KFLL 180753Z 22005KT 10SM SCT040 BKN055 24/21 A2992 RMK AO2 SLP132 T02390211
KFLL 180653Z 21004KT 10SM SCT100 SCT250 24/21 A2992 RMK AO2 SLP132 T02390211
KFLL 180553Z 20004KT 10SM CLR 24/21 A2992 RMK AO2 SLP131 T02390211 10283 20239 53004
KFLL 180453Z 31006KT 10SM CLR 24/21 A2991 RMK AO2 SLP129 T02390206 403280228
KFLL 180353Z 28006KT 10SM CLR 24/20 A2991 RMK AO2 SLP129 T02440200
KFLL 180253Z 27007KT 10SM CLR 25/19 A2991 RMK AO2 SLP127 T02500189 51016
KFLL 180153Z 28005KT 10SM CLR 26/18 A2990 RMK AO2 SLP124 T02560183
KFLL 180053Z 24008KT 10SM FEW200 27/18 A2988 RMK AO2 SLP117 T02720183
KFLL 172353Z 24009KT 10SM FEW250 28/19 A2986 RMK AO2 SLP111 T02830189 10328 20283 53006
KFLL 172253Z 25009KT 10SM FEW250 29/19 A2985 RMK AO2 SLP108 T02940189
KFLL 172153Z 25011KT 10SM FEW250 31/18 A2984 RMK AO2 SLP104 T03060183
KFLL 172053Z 24010G17KT 10SM FEW055 32/19 A2984 RMK AO2 SLP105 T03170194 56017
KFLL 171953Z 25017KT 10SM R10L/3000VP6000FT FEW055 32/19 A2985 RMK AO2 SLP107 T03220194
KFLL 171853Z 27014G20KT 10SM FEW055 FEW220 32/19 A2987 RMK AO2 SLP116 T03220194
KFLL 171753Z 23013G24KT 10SM SCT050 SCT220 32/19 A2989 RMK AO2 SLP122 T03170189 10322 20233 57016
KFLL 171653Z 22009KT 10SM SCT034 BKN220 31/20 A2990 RMK AO2 SLP123 T03060200
KFLL 171553Z 25011G17KT 10SM SCT037 BKN250 29/21 A2993 RMK AO2 SLP136 T02940206
KFLL 171453Z 22010KT 10SM FEW029 FEW035 BKN250 29/21 A2994 RMK AO2 SLP138 T02890211 53014
KFLL 171353Z 25008G21KT 10SM SCT020 BKN250 27/22 A2992 RMK AO2 SLP130 T02670217
KFLL 171253Z 23006KT 10SM SCT250 26/22 A2991 RMK AO2 SLP126 T02560222
KFLL 171153Z 20003KT 10SM FEW023 FEW250 23/22 A2990 RMK AO2 SLP124 T02330217 10239 20228 53014
KFLL 171053Z VRB03KT 10SM CLR 23/21 A2988 RMK AO2 SLP119 T02280211
KFLL 170953Z 00000KT 10SM CLR 23/21 A2987 RMK AO2 SLP114 T02280211